sensor_id;sensor_type;location;lat;lon;timestamp;temperature;humidity
68922;DHT22;55959;51.244;5.724;2024-02-26T00:01:42;11.10;61.70
68922;DHT22;55959;51.244;5.724;2024-02-26T00:04:11;11.00;61.70
68922;DHT22;55959;51.244;5.724;2024-02-26T00:06:41;11.00;61.90
68922;DHT22;55959;51.244;5.724;2024-02-26T00:09:07;11.00;62.00
68922;DHT22;55959;51.244;5.724;2024-02-26T00:11:35;11.00;62.40
68922;DHT22;55959;51.244;5.724;2024-02-26T00:14:01;11.00;62.10
68922;DHT22;55959;51.244;5.724;2024-02-26T00:16:27;11.00;62.20
68922;DHT22;55959;51.244;5.724;2024-02-26T00:18:53;11.00;62.30
68922;DHT22;55959;51.244;5.724;2024-02-26T00:21:18;11.00;62.50
68922;DHT22;55959;51.244;5.724;2024-02-26T00:23:44;11.00;62.50
68922;DHT22;55959;51.244;5.724;2024-02-26T00:26:10;11.00;62.60
68922;DHT22;55959;51.244;5.724;2024-02-26T00:28:36;11.00;62.70
68922;DHT22;55959;51.244;5.724;2024-02-26T00:31:02;11.00;62.70
68922;DHT22;55959;51.244;5.724;2024-02-26T00:33:28;11.00;62.80
68922;DHT22;55959;51.244;5.724;2024-02-26T00:35:54;10.90;62.90
68922;DHT22;55959;51.244;5.724;2024-02-26T00:38:20;10.90;62.90
68922;DHT22;55959;51.244;5.724;2024-02-26T00:40:46;10.90;63.00
68922;DHT22;55959;51.244;5.724;2024-02-26T00:43:12;10.90;63.30
68922;DHT22;55959;51.244;5.724;2024-02-26T00:45:38;10.90;63.30
68922;DHT22;55959;51.244;5.724;2024-02-26T00:48:04;10.90;63.40
68922;DHT22;55959;51.244;5.724;2024-02-26T00:50:31;10.80;63.50
68922;DHT22;55959;51.244;5.724;2024-02-26T00:52:57;10.80;63.60
68922;DHT22;55959;51.244;5.724;2024-02-26T00:55:23;10.80;63.70
68922;DHT22;55959;51.244;5.724;2024-02-26T00:57:49;10.80;63.80
68922;DHT22;55959;51.244;5.724;2024-02-26T01:00:15;10.80;63.90
68922;DHT22;55959;51.244;5.724;2024-02-26T01:02:41;10.80;64.00
68922;DHT22;55959;51.244;5.724;2024-02-26T01:05:08;10.80;64.10
68922;DHT22;55959;51.244;5.724;2024-02-26T01:07:37;10.80;64.20
68922;DHT22;55959;51.244;5.724;2024-02-26T01:10:03;10.70;64.30
68922;DHT22;55959;51.244;5.724;2024-02-26T01:12:29;10.70;64.40
68922;DHT22;55959;51.244;5.724;2024-02-26T01:14:55;10.70;64.50
68922;DHT22;55959;51.244;5.724;2024-02-26T01:17:21;10.70;64.70
68922;DHT22;55959;51.244;5.724;2024-02-26T01:19:47;10.70;64.70
68922;DHT22;55959;51.244;5.724;2024-02-26T01:22:12;10.70;64.80
68922;DHT22;55959;51.244;5.724;2024-02-26T01:24:38;10.70;64.90
68922;DHT22;55959;51.244;5.724;2024-02-26T01:27:04;10.70;65.10
68922;DHT22;55959;51.244;5.724;2024-02-26T01:29:30;10.70;65.10
68922;DHT22;55959;51.244;5.724;2024-02-26T01:31:56;10.60;65.20
68922;DHT22;55959;51.244;5.724;2024-02-26T01:34:21;10.60;65.40
68922;DHT22;55959;51.244;5.724;2024-02-26T01:36:47;10.60;65.50
68922;DHT22;55959;51.244;5.724;2024-02-26T01:39:13;10.60;65.60
68922;DHT22;55959;51.244;5.724;2024-02-26T01:41:40;10.60;65.70
68922;DHT22;55959;51.244;5.724;2024-02-26T01:44:06;10.60;65.80
68922;DHT22;55959;51.244;5.724;2024-02-26T01:46:33;10.50;65.90
68922;DHT22;55959;51.244;5.724;2024-02-26T01:49:01;10.50;66.10
68922;DHT22;55959;51.244;5.724;2024-02-26T01:51:27;10.50;66.20
68922;DHT22;55959;51.244;5.724;2024-02-26T01:53:54;10.50;66.30
68922;DHT22;55959;51.244;5.724;2024-02-26T01:56:21;10.50;66.40
68922;DHT22;55959;51.244;5.724;2024-02-26T01:58:48;10.50;66.50
68922;DHT22;55959;51.244;5.724;2024-02-26T02:01:15;10.50;66.70
68922;DHT22;55959;51.244;5.724;2024-02-26T02:03:44;10.40;66.70
68922;DHT22;55959;51.244;5.724;2024-02-26T02:06:11;10.40;66.80
68922;DHT22;55959;51.244;5.724;2024-02-26T02:08:37;10.40;67.00
68922;DHT22;55959;51.244;5.724;2024-02-26T02:11:04;10.40;67.10
68922;DHT22;55959;51.244;5.724;2024-02-26T02:13:31;10.30;67.20
68922;DHT22;55959;51.244;5.724;2024-02-26T02:15:57;10.30;67.30
68922;DHT22;55959;51.244;5.724;2024-02-26T02:18:22;10.30;67.60
68922;DHT22;55959;51.244;5.724;2024-02-26T02:20:48;10.30;67.60
68922;DHT22;55959;51.244;5.724;2024-02-26T02:23:14;10.30;67.70
68922;DHT22;55959;51.244;5.724;2024-02-26T02:25:40;10.30;67.90
68922;DHT22;55959;51.244;5.724;2024-02-26T02:28:06;10.30;67.90
68922;DHT22;55959;51.244;5.724;2024-02-26T02:30:32;10.30;68.10
68922;DHT22;55959;51.244;5.724;2024-02-26T02:32:59;10.30;68.20
68922;DHT22;55959;51.244;5.724;2024-02-26T02:35:25;10.30;68.30
68922;DHT22;55959;51.244;5.724;2024-02-26T02:37:54;10.30;68.50
68922;DHT22;55959;51.244;5.724;2024-02-26T02:40:21;10.20;68.50
68922;DHT22;55959;51.244;5.724;2024-02-26T02:42:46;10.20;68.50
68922;DHT22;55959;51.244;5.724;2024-02-26T02:45:12;10.20;69.50
68922;DHT22;55959;51.244;5.724;2024-02-26T02:47:38;10.30;68.80
68922;DHT22;55959;51.244;5.724;2024-02-26T02:50:04;10.20;68.70
68922;DHT22;55959;51.244;5.724;2024-02-26T02:52:31;10.20;68.90
68922;DHT22;55959;51.244;5.724;2024-02-26T02:54:56;10.20;68.90
68922;DHT22;55959;51.244;5.724;2024-02-26T02:57:23;10.20;69.10
68922;DHT22;55959;51.244;5.724;2024-02-26T02:59:48;10.20;69.10
68922;DHT22;55959;51.244;5.724;2024-02-26T03:02:14;10.20;69.10
68922;DHT22;55959;51.244;5.724;2024-02-26T03:04:40;10.20;69.10
68922;DHT22;55959;51.244;5.724;2024-02-26T03:07:06;10.20;69.30
68922;DHT22;55959;51.244;5.724;2024-02-26T03:09:31;10.20;69.30
68922;DHT22;55959;51.244;5.724;2024-02-26T03:11:57;10.20;69.30
68922;DHT22;55959;51.244;5.724;2024-02-26T03:14:23;10.20;69.40
68922;DHT22;55959;51.244;5.724;2024-02-26T03:16:49;10.20;69.40
68922;DHT22;55959;51.244;5.724;2024-02-26T03:19:15;10.20;69.50
68922;DHT22;55959;51.244;5.724;2024-02-26T03:21:44;10.20;69.50
68922;DHT22;55959;51.244;5.724;2024-02-26T03:24:10;10.20;69.50
68922;DHT22;55959;51.244;5.724;2024-02-26T03:26:36;10.20;69.50
68922;DHT22;55959;51.244;5.724;2024-02-26T03:29:02;10.20;69.60
68922;DHT22;55959;51.244;5.724;2024-02-26T03:31:28;10.20;69.70
68922;DHT22;55959;51.244;5.724;2024-02-26T03:33:54;10.20;69.70
68922;DHT22;55959;51.244;5.724;2024-02-26T03:36:20;10.20;69.70
68922;DHT22;55959;51.244;5.724;2024-02-26T03:38:47;10.20;69.80
68922;DHT22;55959;51.244;5.724;2024-02-26T03:41:14;10.20;69.90
68922;DHT22;55959;51.244;5.724;2024-02-26T03:43:39;10.20;69.90
68922;DHT22;55959;51.244;5.724;2024-02-26T03:46:09;10.10;70.00
68922;DHT22;55959;51.244;5.724;2024-02-26T03:48:36;10.10;70.10
68922;DHT22;55959;51.244;5.724;2024-02-26T03:51:03;10.20;70.10
68922;DHT22;55959;51.244;5.724;2024-02-26T03:53:29;10.10;70.10
68922;DHT22;55959;51.244;5.724;2024-02-26T03:55:55;10.10;70.20
68922;DHT22;55959;51.244;5.724;2024-02-26T03:58:21;10.10;70.20
68922;DHT22;55959;51.244;5.724;2024-02-26T04:00:47;10.10;70.30
68922;DHT22;55959;51.244;5.724;2024-02-26T04:03:13;10.10;70.40
68922;DHT22;55959;51.244;5.724;2024-02-26T04:05:39;10.10;70.40
68922;DHT22;55959;51.244;5.724;2024-02-26T04:08:05;10.00;70.40
68922;DHT22;55959;51.244;5.724;2024-02-26T04:10:33;10.10;70.60
68922;DHT22;55959;51.244;5.724;2024-02-26T04:13:04;10.00;70.50
68922;DHT22;55959;51.244;5.724;2024-02-26T04:15:31;10.00;70.50
68922;DHT22;55959;51.244;5.724;2024-02-26T04:17:57;10.00;70.50
68922;DHT22;55959;51.244;5.724;2024-02-26T04:20:23;10.00;70.60
68922;DHT22;55959;51.244;5.724;2024-02-26T04:22:49;10.00;70.60
68922;DHT22;55959;51.244;5.724;2024-02-26T04:25:15;10.00;70.70
68922;DHT22;55959;51.244;5.724;2024-02-26T04:27:40;10.00;70.80
68922;DHT22;55959;51.244;5.724;2024-02-26T04:30:07;9.90;70.70
68922;DHT22;55959;51.244;5.724;2024-02-26T04:32:34;9.90;70.80
68922;DHT22;55959;51.244;5.724;2024-02-26T04:35:00;9.90;70.90
68922;DHT22;55959;51.244;5.724;2024-02-26T04:37:27;9.90;70.90
68922;DHT22;55959;51.244;5.724;2024-02-26T04:39:59;9.90;70.90
68922;DHT22;55959;51.244;5.724;2024-02-26T04:42:26;9.90;71.00
68922;DHT22;55959;51.244;5.724;2024-02-26T04:44:53;9.90;71.10
68922;DHT22;55959;51.244;5.724;2024-02-26T04:47:20;9.90;71.10
68922;DHT22;55959;51.244;5.724;2024-02-26T04:49:50;9.90;71.10
68922;DHT22;55959;51.244;5.724;2024-02-26T04:52:18;9.90;71.30
68922;DHT22;55959;51.244;5.724;2024-02-26T04:54:44;9.90;71.30
68922;DHT22;55959;51.244;5.724;2024-02-26T04:57:10;9.80;71.30
68922;DHT22;55959;51.244;5.724;2024-02-26T04:59:35;9.80;71.30
68922;DHT22;55959;51.244;5.724;2024-02-26T05:02:01;9.80;71.40
68922;DHT22;55959;51.244;5.724;2024-02-26T05:04:27;9.80;71.50
68922;DHT22;55959;51.244;5.724;2024-02-26T05:06:52;9.80;71.50
68922;DHT22;55959;51.244;5.724;2024-02-26T05:09:19;9.80;71.60
68922;DHT22;55959;51.244;5.724;2024-02-26T05:11:45;9.80;71.70
68922;DHT22;55959;51.244;5.724;2024-02-26T05:14:10;9.80;71.70
68922;DHT22;55959;51.244;5.724;2024-02-26T05:16:36;9.80;71.80
68922;DHT22;55959;51.244;5.724;2024-02-26T05:19:02;9.70;71.80
68922;DHT22;55959;51.244;5.724;2024-02-26T05:21:28;9.70;71.80
68922;DHT22;55959;51.244;5.724;2024-02-26T05:23:54;9.70;71.80
68922;DHT22;55959;51.244;5.724;2024-02-26T05:26:23;9.70;71.80
68922;DHT22;55959;51.244;5.724;2024-02-26T05:28:49;9.70;72.00
68922;DHT22;55959;51.244;5.724;2024-02-26T05:31:16;9.70;72.00
68922;DHT22;55959;51.244;5.724;2024-02-26T05:33:42;9.70;72.10
68922;DHT22;55959;51.244;5.724;2024-02-26T05:36:08;9.70;72.10
68922;DHT22;55959;51.244;5.724;2024-02-26T05:38:34;9.60;72.10
68922;DHT22;55959;51.244;5.724;2024-02-26T05:41:00;9.60;72.10
68922;DHT22;55959;51.244;5.724;2024-02-26T05:43:28;9.60;72.20
68922;DHT22;55959;51.244;5.724;2024-02-26T05:45:54;9.60;72.30
68922;DHT22;55959;51.244;5.724;2024-02-26T05:48:21;9.60;72.30
68922;DHT22;55959;51.244;5.724;2024-02-26T05:50:47;9.50;72.40
68922;DHT22;55959;51.244;5.724;2024-02-26T05:53:12;9.50;72.40
68922;DHT22;55959;51.244;5.724;2024-02-26T05:55:38;9.50;72.40
68922;DHT22;55959;51.244;5.724;2024-02-26T05:58:04;9.50;72.50
68922;DHT22;55959;51.244;5.724;2024-02-26T06:00:30;9.50;72.50
68922;DHT22;55959;51.244;5.724;2024-02-26T06:02:56;9.50;72.60
68922;DHT22;55959;51.244;5.724;2024-02-26T06:05:22;9.50;72.60
68922;DHT22;55959;51.244;5.724;2024-02-26T06:07:47;9.50;72.60
68922;DHT22;55959;51.244;5.724;2024-02-26T06:10:13;9.50;72.60
68922;DHT22;55959;51.244;5.724;2024-02-26T06:12:39;9.50;72.70
68922;DHT22;55959;51.244;5.724;2024-02-26T06:15:06;9.50;72.70
68922;DHT22;55959;51.244;5.724;2024-02-26T06:17:32;9.50;72.70
68922;DHT22;55959;51.244;5.724;2024-02-26T06:19:59;9.50;72.80
68922;DHT22;55959;51.244;5.724;2024-02-26T06:22:25;9.50;72.80
68922;DHT22;55959;51.244;5.724;2024-02-26T06:24:51;9.50;72.80
68922;DHT22;55959;51.244;5.724;2024-02-26T06:27:17;9.50;72.90
68922;DHT22;55959;51.244;5.724;2024-02-26T06:29:43;9.50;72.90
68922;DHT22;55959;51.244;5.724;2024-02-26T06:32:08;9.50;72.90
68922;DHT22;55959;51.244;5.724;2024-02-26T06:34:34;9.40;72.90
68922;DHT22;55959;51.244;5.724;2024-02-26T06:37:00;9.50;73.00
68922;DHT22;55959;51.244;5.724;2024-02-26T06:39:26;9.50;73.00
68922;DHT22;55959;51.244;5.724;2024-02-26T06:41:51;9.50;73.10
68922;DHT22;55959;51.244;5.724;2024-02-26T06:44:25;9.40;73.10
68922;DHT22;55959;51.244;5.724;2024-02-26T06:46:51;9.40;73.10
68922;DHT22;55959;51.244;5.724;2024-02-26T06:49:17;9.50;73.20
68922;DHT22;55959;51.244;5.724;2024-02-26T06:51:43;9.40;73.20
68922;DHT22;55959;51.244;5.724;2024-02-26T06:54:08;9.50;73.30
68922;DHT22;55959;51.244;5.724;2024-02-26T06:56:35;9.50;73.30
68922;DHT22;55959;51.244;5.724;2024-02-26T06:59:00;9.50;73.40
68922;DHT22;55959;51.244;5.724;2024-02-26T07:01:26;9.40;73.40
68922;DHT22;55959;51.244;5.724;2024-02-26T07:03:52;9.40;73.40
68922;DHT22;55959;51.244;5.724;2024-02-26T07:06:17;9.40;73.40
68922;DHT22;55959;51.244;5.724;2024-02-26T07:08:43;9.50;74.40
68922;DHT22;55959;51.244;5.724;2024-02-26T07:11:10;9.50;73.60
68922;DHT22;55959;51.244;5.724;2024-02-26T07:13:36;9.50;73.60
68922;DHT22;55959;51.244;5.724;2024-02-26T07:16:03;9.40;73.60
68922;DHT22;55959;51.244;5.724;2024-02-26T07:18:29;9.40;73.60
68922;DHT22;55959;51.244;5.724;2024-02-26T07:20:55;9.50;73.70
68922;DHT22;55959;51.244;5.724;2024-02-26T07:23:21;9.50;73.70
68922;DHT22;55959;51.244;5.724;2024-02-26T07:25:47;9.40;73.70
68922;DHT22;55959;51.244;5.724;2024-02-26T07:28:14;9.50;73.70
68922;DHT22;55959;51.244;5.724;2024-02-26T07:30:40;9.40;73.70
68922;DHT22;55959;51.244;5.724;2024-02-26T07:33:06;9.40;73.80
68922;DHT22;55959;51.244;5.724;2024-02-26T07:35:32;9.40;73.80
68922;DHT22;55959;51.244;5.724;2024-02-26T07:37:59;9.40;73.80
68922;DHT22;55959;51.244;5.724;2024-02-26T07:40:24;9.40;73.80
68922;DHT22;55959;51.244;5.724;2024-02-26T07:42:50;9.40;73.90
68922;DHT22;55959;51.244;5.724;2024-02-26T07:45:16;9.40;73.90
68922;DHT22;55959;51.244;5.724;2024-02-26T07:47:45;9.40;73.90
68922;DHT22;55959;51.244;5.724;2024-02-26T07:50:12;9.40;73.90
68922;DHT22;55959;51.244;5.724;2024-02-26T07:52:38;9.50;74.00
68922;DHT22;55959;51.244;5.724;2024-02-26T07:55:05;9.50;74.00
68922;DHT22;55959;51.244;5.724;2024-02-26T07:57:32;9.40;74.00
68922;DHT22;55959;51.244;5.724;2024-02-26T08:00:02;9.50;74.10
68922;DHT22;55959;51.244;5.724;2024-02-26T08:02:28;9.50;74.00
68922;DHT22;55959;51.244;5.724;2024-02-26T08:04:54;9.50;74.00
68922;DHT22;55959;51.244;5.724;2024-02-26T08:07:20;9.50;74.00
68922;DHT22;55959;51.244;5.724;2024-02-26T08:09:47;9.50;74.90
68922;DHT22;55959;51.244;5.724;2024-02-26T08:12:13;9.50;74.10
68922;DHT22;55959;51.244;5.724;2024-02-26T08:14:39;9.50;74.10
68922;DHT22;55959;51.244;5.724;2024-02-26T08:17:05;9.50;74.20
68922;DHT22;55959;51.244;5.724;2024-02-26T08:19:30;9.50;74.20
68922;DHT22;55959;51.244;5.724;2024-02-26T08:21:56;9.50;74.20
68922;DHT22;55959;51.244;5.724;2024-02-26T08:24:23;9.50;74.20
68922;DHT22;55959;51.244;5.724;2024-02-26T08:26:48;9.50;74.20
68922;DHT22;55959;51.244;5.724;2024-02-26T08:29:14;9.50;74.20
68922;DHT22;55959;51.244;5.724;2024-02-26T08:31:40;9.50;74.20
68922;DHT22;55959;51.244;5.724;2024-02-26T08:34:06;9.50;74.30
68922;DHT22;55959;51.244;5.724;2024-02-26T08:36:33;9.50;74.30
68922;DHT22;55959;51.244;5.724;2024-02-26T08:39:00;9.50;74.40
68922;DHT22;55959;51.244;5.724;2024-02-26T08:41:26;9.50;74.40
68922;DHT22;55959;51.244;5.724;2024-02-26T08:43:51;9.50;74.40
68922;DHT22;55959;51.244;5.724;2024-02-26T08:46:17;9.50;74.40
68922;DHT22;55959;51.244;5.724;2024-02-26T08:48:43;9.50;74.40
68922;DHT22;55959;51.244;5.724;2024-02-26T08:51:09;9.50;74.50
68922;DHT22;55959;51.244;5.724;2024-02-26T08:53:38;9.50;74.50
68922;DHT22;55959;51.244;5.724;2024-02-26T08:56:05;9.60;74.60
68922;DHT22;55959;51.244;5.724;2024-02-26T08:58:31;9.50;74.50
68922;DHT22;55959;51.244;5.724;2024-02-26T09:00:57;9.50;74.60
68922;DHT22;55959;51.244;5.724;2024-02-26T09:03:23;9.60;74.60
68922;DHT22;55959;51.244;5.724;2024-02-26T09:05:49;9.60;74.60
68922;DHT22;55959;51.244;5.724;2024-02-26T09:08:15;9.50;74.50
68922;DHT22;55959;51.244;5.724;2024-02-26T09:10:41;9.60;74.60
68922;DHT22;55959;51.244;5.724;2024-02-26T09:13:07;9.50;74.60
68922;DHT22;55959;51.244;5.724;2024-02-26T09:15:33;9.50;74.60
68922;DHT22;55959;51.244;5.724;2024-02-26T09:18:02;9.50;74.60
68922;DHT22;55959;51.244;5.724;2024-02-26T09:20:28;9.50;74.60
68922;DHT22;55959;51.244;5.724;2024-02-26T09:22:55;9.50;74.60
68922;DHT22;55959;51.244;5.724;2024-02-26T09:25:20;9.50;74.60
68922;DHT22;55959;51.244;5.724;2024-02-26T09:27:46;9.50;74.60
68922;DHT22;55959;51.244;5.724;2024-02-26T09:30:13;9.50;74.60
68922;DHT22;55959;51.244;5.724;2024-02-26T09:32:39;9.50;74.60
68922;DHT22;55959;51.244;5.724;2024-02-26T09:35:06;9.50;74.60
68922;DHT22;55959;51.244;5.724;2024-02-26T09:37:33;9.50;74.50
68922;DHT22;55959;51.244;5.724;2024-02-26T09:39:59;9.50;74.50
68922;DHT22;55959;51.244;5.724;2024-02-26T09:42:26;9.50;74.50
68922;DHT22;55959;51.244;5.724;2024-02-26T09:44:55;9.50;74.50
68922;DHT22;55959;51.244;5.724;2024-02-26T09:47:25;9.50;74.60
68922;DHT22;55959;51.244;5.724;2024-02-26T09:49:53;9.50;74.60
68922;DHT22;55959;51.244;5.724;2024-02-26T09:52:21;9.50;75.40
68922;DHT22;55959;51.244;5.724;2024-02-26T09:54:49;9.50;74.60
68922;DHT22;55959;51.244;5.724;2024-02-26T09:57:16;9.50;74.60
68922;DHT22;55959;51.244;5.724;2024-02-26T09:59:46;9.50;74.60
68922;DHT22;55959;51.244;5.724;2024-02-26T10:02:13;9.50;74.60
68922;DHT22;55959;51.244;5.724;2024-02-26T10:04:41;9.50;74.60
68922;DHT22;55959;51.244;5.724;2024-02-26T10:07:12;9.50;74.70
68922;DHT22;55959;51.244;5.724;2024-02-26T10:09:39;9.50;74.70
68922;DHT22;55959;51.244;5.724;2024-02-26T10:12:08;9.50;74.70
68922;DHT22;55959;51.244;5.724;2024-02-26T10:14:35;9.50;74.80
68922;DHT22;55959;51.244;5.724;2024-02-26T10:17:02;9.50;74.80
68922;DHT22;55959;51.244;5.724;2024-02-26T10:19:29;9.50;74.80
68922;DHT22;55959;51.244;5.724;2024-02-26T10:22:00;9.50;74.80
68922;DHT22;55959;51.244;5.724;2024-02-26T10:24:30;9.50;74.80
68922;DHT22;55959;51.244;5.724;2024-02-26T10:26:56;9.50;74.80
68922;DHT22;55959;51.244;5.724;2024-02-26T10:29:24;9.50;74.80
68922;DHT22;55959;51.244;5.724;2024-02-26T10:31:51;9.50;74.80
68922;DHT22;55959;51.244;5.724;2024-02-26T10:34:18;9.50;74.80
68922;DHT22;55959;51.244;5.724;2024-02-26T10:36:44;9.50;74.80
68922;DHT22;55959;51.244;5.724;2024-02-26T10:39:12;9.50;74.90
68922;DHT22;55959;51.244;5.724;2024-02-26T10:41:40;9.50;74.80
68922;DHT22;55959;51.244;5.724;2024-02-26T10:44:09;9.50;74.80
68922;DHT22;55959;51.244;5.724;2024-02-26T10:46:37;9.50;74.80
68922;DHT22;55959;51.244;5.724;2024-02-26T10:49:04;9.50;74.80
68922;DHT22;55959;51.244;5.724;2024-02-26T10:51:31;9.50;74.80
68922;DHT22;55959;51.244;5.724;2024-02-26T10:53:59;9.50;74.80
68922;DHT22;55959;51.244;5.724;2024-02-26T10:56:29;9.50;74.90
68922;DHT22;55959;51.244;5.724;2024-02-26T10:58:55;9.50;74.90
68922;DHT22;55959;51.244;5.724;2024-02-26T11:01:22;9.50;75.00
68922;DHT22;55959;51.244;5.724;2024-02-26T11:03:51;9.50;75.00
68922;DHT22;55959;51.244;5.724;2024-02-26T11:06:26;9.50;75.00
68922;DHT22;55959;51.244;5.724;2024-02-26T11:08:53;9.50;75.00
68922;DHT22;55959;51.244;5.724;2024-02-26T11:11:20;9.50;75.00
68922;DHT22;55959;51.244;5.724;2024-02-26T11:13:47;9.50;75.10
68922;DHT22;55959;51.244;5.724;2024-02-26T11:16:21;9.60;75.20
68922;DHT22;55959;51.244;5.724;2024-02-26T11:18:52;9.50;75.10
68922;DHT22;55959;51.244;5.724;2024-02-26T11:21:21;9.50;75.00
68922;DHT22;55959;51.244;5.724;2024-02-26T11:24:05;9.60;75.10
68922;DHT22;55959;51.244;5.724;2024-02-26T11:26:34;9.60;75.20
68922;DHT22;55959;51.244;5.724;2024-02-26T11:29:04;9.60;75.20
68922;DHT22;55959;51.244;5.724;2024-02-26T11:31:30;9.60;75.20
68922;DHT22;55959;51.244;5.724;2024-02-26T11:33:56;9.60;75.30
68922;DHT22;55959;51.244;5.724;2024-02-26T11:36:23;9.60;75.30
68922;DHT22;55959;51.244;5.724;2024-02-26T11:38:50;9.60;75.30
68922;DHT22;55959;51.244;5.724;2024-02-26T11:41:18;9.60;75.30
68922;DHT22;55959;51.244;5.724;2024-02-26T11:43:58;9.60;75.20
68922;DHT22;55959;51.244;5.724;2024-02-26T11:46:27;9.70;75.40
68922;DHT22;55959;51.244;5.724;2024-02-26T11:51:52;9.60;75.40
68922;DHT22;55959;51.244;5.724;2024-02-26T11:59:46;9.60;75.30
68922;DHT22;55959;51.244;5.724;2024-02-26T12:02:12;9.60;75.30
68922;DHT22;55959;51.244;5.724;2024-02-26T12:04:38;9.60;75.20
68922;DHT22;55959;51.244;5.724;2024-02-26T12:07:04;9.60;75.10
68922;DHT22;55959;51.244;5.724;2024-02-26T12:12:03;9.60;75.00
68922;DHT22;55959;51.244;5.724;2024-02-26T12:14:33;9.70;75.10
68922;DHT22;55959;51.244;5.724;2024-02-26T12:17:00;9.60;75.00
68922;DHT22;55959;51.244;5.724;2024-02-26T12:19:27;9.60;75.10
68922;DHT22;55959;51.244;5.724;2024-02-26T12:21:53;9.60;75.10
68922;DHT22;55959;51.244;5.724;2024-02-26T12:24:22;9.70;75.10
68922;DHT22;55959;51.244;5.724;2024-02-26T12:26:48;9.60;75.10
68922;DHT22;55959;51.244;5.724;2024-02-26T12:29:14;9.70;75.20
68922;DHT22;55959;51.244;5.724;2024-02-26T12:31:40;9.70;75.20
68922;DHT22;55959;51.244;5.724;2024-02-26T12:34:07;9.70;75.20
68922;DHT22;55959;51.244;5.724;2024-02-26T12:36:34;9.70;75.20
68922;DHT22;55959;51.244;5.724;2024-02-26T12:39:02;9.70;75.30
68922;DHT22;55959;51.244;5.724;2024-02-26T12:41:28;9.70;75.30
68922;DHT22;55959;51.244;5.724;2024-02-26T12:43:57;9.70;75.20
68922;DHT22;55959;51.244;5.724;2024-02-26T12:46:24;9.70;75.20
68922;DHT22;55959;51.244;5.724;2024-02-26T12:48:49;9.70;75.20
68922;DHT22;55959;51.244;5.724;2024-02-26T12:51:16;9.70;75.40
68922;DHT22;55959;51.244;5.724;2024-02-26T12:53:44;9.70;75.30
68922;DHT22;55959;51.244;5.724;2024-02-26T12:56:11;9.70;75.30
68922;DHT22;55959;51.244;5.724;2024-02-26T12:58:40;9.70;75.30
68922;DHT22;55959;51.244;5.724;2024-02-26T13:01:07;9.70;75.40
68922;DHT22;55959;51.244;5.724;2024-02-26T13:03:40;9.70;75.40
68922;DHT22;55959;51.244;5.724;2024-02-26T13:06:07;9.70;75.50
68922;DHT22;55959;51.244;5.724;2024-02-26T13:08:33;9.70;75.50
68922;DHT22;55959;51.244;5.724;2024-02-26T13:10:59;9.80;75.50
68922;DHT22;55959;51.244;5.724;2024-02-26T13:13:25;9.80;75.60
68922;DHT22;55959;51.244;5.724;2024-02-26T13:16:04;9.80;75.60
68922;DHT22;55959;51.244;5.724;2024-02-26T13:18:32;9.80;75.60
68922;DHT22;55959;51.244;5.724;2024-02-26T13:21:12;9.80;75.60
68922;DHT22;55959;51.244;5.724;2024-02-26T13:23:40;9.80;75.70
68922;DHT22;55959;51.244;5.724;2024-02-26T13:26:07;9.80;75.70
68922;DHT22;55959;51.244;5.724;2024-02-26T13:28:34;9.80;75.80
68922;DHT22;55959;51.244;5.724;2024-02-26T13:31:01;9.80;75.70
68922;DHT22;55959;51.244;5.724;2024-02-26T13:33:29;9.90;75.80
68922;DHT22;55959;51.244;5.724;2024-02-26T13:35:56;9.90;75.80
68922;DHT22;55959;51.244;5.724;2024-02-26T13:38:23;9.90;75.80
68922;DHT22;55959;51.244;5.724;2024-02-26T13:40:50;9.90;75.80
68922;DHT22;55959;51.244;5.724;2024-02-26T13:43:16;9.90;75.80
68922;DHT22;55959;51.244;5.724;2024-02-26T13:45:43;9.90;75.80
68922;DHT22;55959;51.244;5.724;2024-02-26T13:48:10;9.90;75.80
68922;DHT22;55959;51.244;5.724;2024-02-26T13:50:37;9.90;75.80
68922;DHT22;55959;51.244;5.724;2024-02-26T13:53:08;9.90;75.80
68922;DHT22;55959;51.244;5.724;2024-02-26T13:55:34;10.00;75.80
68922;DHT22;55959;51.244;5.724;2024-02-26T13:58:00;10.00;75.80
68922;DHT22;55959;51.244;5.724;2024-02-26T14:00:28;10.00;75.90
68922;DHT22;55959;51.244;5.724;2024-02-26T14:02:57;10.00;75.80
68922;DHT22;55959;51.244;5.724;2024-02-26T14:05:23;10.00;75.90
68922;DHT22;55959;51.244;5.724;2024-02-26T14:07:49;10.00;75.90
68922;DHT22;55959;51.244;5.724;2024-02-26T14:10:15;10.00;75.90
68922;DHT22;55959;51.244;5.724;2024-02-26T14:12:41;10.00;75.90
68922;DHT22;55959;51.244;5.724;2024-02-26T14:15:08;10.00;75.80
68922;DHT22;55959;51.244;5.724;2024-02-26T14:17:35;10.00;75.80
68922;DHT22;55959;51.244;5.724;2024-02-26T14:20:01;10.00;75.80
68922;DHT22;55959;51.244;5.724;2024-02-26T14:22:27;10.00;75.80
68922;DHT22;55959;51.244;5.724;2024-02-26T14:24:53;10.00;75.80
68922;DHT22;55959;51.244;5.724;2024-02-26T14:27:19;10.00;75.80
68922;DHT22;55959;51.244;5.724;2024-02-26T14:29:48;10.00;75.90
68922;DHT22;55959;51.244;5.724;2024-02-26T14:32:14;10.10;75.90
68922;DHT22;55959;51.244;5.724;2024-02-26T14:34:40;10.00;75.70
68922;DHT22;55959;51.244;5.724;2024-02-26T14:37:06;10.10;75.80
68922;DHT22;55959;51.244;5.724;2024-02-26T14:39:32;10.00;75.70
68922;DHT22;55959;51.244;5.724;2024-02-26T14:41:59;10.10;75.70
68922;DHT22;55959;51.244;5.724;2024-02-26T14:44:25;10.10;75.70
68922;DHT22;55959;51.244;5.724;2024-02-26T14:46:51;10.10;75.60
68922;DHT22;55959;51.244;5.724;2024-02-26T14:49:17;10.10;75.60
68922;DHT22;55959;51.244;5.724;2024-02-26T14:51:43;10.10;75.60
68922;DHT22;55959;51.244;5.724;2024-02-26T14:54:13;10.10;75.50
68922;DHT22;55959;51.244;5.724;2024-02-26T14:56:39;10.10;75.50
68922;DHT22;55959;51.244;5.724;2024-02-26T14:59:05;10.10;75.50
68922;DHT22;55959;51.244;5.724;2024-02-26T15:01:32;10.10;75.60
68922;DHT22;55959;51.244;5.724;2024-02-26T15:03:58;10.10;75.50
68922;DHT22;55959;51.244;5.724;2024-02-26T15:06:25;10.10;75.50
68922;DHT22;55959;51.244;5.724;2024-02-26T15:08:52;10.10;75.50
68922;DHT22;55959;51.244;5.724;2024-02-26T15:11:18;10.10;75.50
68922;DHT22;55959;51.244;5.724;2024-02-26T15:13:44;10.10;75.50
68922;DHT22;55959;51.244;5.724;2024-02-26T15:16:20;10.10;75.50
68922;DHT22;55959;51.244;5.724;2024-02-26T15:18:49;10.10;75.50
68922;DHT22;55959;51.244;5.724;2024-02-26T15:21:14;10.10;75.50
68922;DHT22;55959;51.244;5.724;2024-02-26T15:23:43;10.10;75.50
68922;DHT22;55959;51.244;5.724;2024-02-26T15:26:12;10.10;75.50
68922;DHT22;55959;51.244;5.724;2024-02-26T15:28:37;10.10;75.40
68922;DHT22;55959;51.244;5.724;2024-02-26T15:31:04;10.10;75.30
68922;DHT22;55959;51.244;5.724;2024-02-26T15:33:29;10.10;75.30
68922;DHT22;55959;51.244;5.724;2024-02-26T15:35:55;10.10;75.30
68922;DHT22;55959;51.244;5.724;2024-02-26T15:38:21;10.10;76.10
68922;DHT22;55959;51.244;5.724;2024-02-26T15:40:47;10.10;75.20
68922;DHT22;55959;51.244;5.724;2024-02-26T15:43:13;10.10;75.20
68922;DHT22;55959;51.244;5.724;2024-02-26T15:45:40;10.10;75.00
68922;DHT22;55959;51.244;5.724;2024-02-26T15:48:06;10.10;75.00